sensor_id;sensor_type;location;lat;lon;timestamp;P1;durP1;ratioP1;P2;durP2;ratioP2
5971;SDS011;3012;49.944;8.454;2023-12-20T00:01:22;5.63;;;4.50;;
5971;SDS011;3012;49.944;8.454;2023-12-20T00:03:50;16.73;;;8.53;;
5971;SDS011;3012;49.944;8.454;2023-12-20T00:06:18;10.00;;;6.23;;
5971;SDS011;3012;49.944;8.454;2023-12-20T00:08:50;6.63;;;4.63;;
5971;SDS011;3012;49.944;8.454;2023-12-20T00:11:18;4.70;;;4.40;;
5971;SDS011;3012;49.944;8.454;2023-12-20T00:13:46;4.73;;;4.17;;
5971;SDS011;3012;49.944;8.454;2023-12-20T00:16:17;8.70;;;5.97;;
5971;SDS011;3012;49.944;8.454;2023-12-20T00:18:45;6.70;;;5.83;;
5971;SDS011;3012;49.944;8.454;2023-12-20T00:21:13;8.90;;;5.73;;
5971;SDS011;3012;49.944;8.454;2023-12-20T00:23:41;13.17;;;7.20;;
5971;SDS011;3012;49.944;8.454;2023-12-20T00:26:11;10.60;;;5.93;;
5971;SDS011;3012;49.944;8.454;2023-12-20T00:28:39;9.80;;;7.00;;
5971;SDS011;3012;49.944;8.454;2023-12-20T00:31:07;11.97;;;6.83;;
5971;SDS011;3012;49.944;8.454;2023-12-20T00:33:35;13.27;;;7.13;;
5971;SDS011;3012;49.944;8.454;2023-12-20T00:36:04;9.13;;;6.53;;
5971;SDS011;3012;49.944;8.454;2023-12-20T00:38:32;6.60;;;5.07;;
5971;SDS011;3012;49.944;8.454;2023-12-20T00:41:00;8.10;;;5.10;;
5971;SDS011;3012;49.944;8.454;2023-12-20T00:43:30;6.97;;;4.77;;
5971;SDS011;3012;49.944;8.454;2023-12-20T00:45:58;8.17;;;5.13;;
5971;SDS011;3012;49.944;8.454;2023-12-20T00:48:26;8.40;;;4.73;;
5971;SDS011;3012;49.944;8.454;2023-12-20T00:50:56;3.93;;;3.63;;
5971;SDS011;3012;49.944;8.454;2023-12-20T00:53:24;3.93;;;3.37;;
5971;SDS011;3012;49.944;8.454;2023-12-20T00:55:52;4.10;;;3.70;;
5971;SDS011;3012;49.944;8.454;2023-12-20T00:58:21;3.03;;;2.83;;
5971;SDS011;3012;49.944;8.454;2023-12-20T01:00:50;3.03;;;2.70;;
5971;SDS011;3012;49.944;8.454;2023-12-20T01:03:18;3.40;;;2.83;;
5971;SDS011;3012;49.944;8.454;2023-12-20T01:05:46;3.40;;;3.13;;
5971;SDS011;3012;49.944;8.454;2023-12-20T01:08:14;3.30;;;3.10;;
5971;SDS011;3012;49.944;8.454;2023-12-20T01:10:43;3.00;;;2.80;;
5971;SDS011;3012;49.944;8.454;2023-12-20T01:13:13;2.67;;;2.57;;
5971;SDS011;3012;49.944;8.454;2023-12-20T01:15:41;2.43;;;2.33;;
5971;SDS011;3012;49.944;8.454;2023-12-20T01:18:11;2.20;;;1.77;;
5971;SDS011;3012;49.944;8.454;2023-12-20T01:20:39;2.50;;;2.40;;
5971;SDS011;3012;49.944;8.454;2023-12-20T01:23:07;2.60;;;2.40;;
5971;SDS011;3012;49.944;8.454;2023-12-20T01:25:35;2.17;;;2.07;;
5971;SDS011;3012;49.944;8.454;2023-12-20T01:28:03;2.43;;;2.33;;
5971;SDS011;3012;49.944;8.454;2023-12-20T01:30:31;3.07;;;2.17;;
5971;SDS011;3012;49.944;8.454;2023-12-20T01:32:59;2.20;;;2.20;;
5971;SDS011;3012;49.944;8.454;2023-12-20T01:35:29;2.00;;;1.90;;
5971;SDS011;3012;49.944;8.454;2023-12-20T01:37:57;2.33;;;2.23;;
5971;SDS011;3012;49.944;8.454;2023-12-20T01:40:25;1.93;;;1.90;;
5971;SDS011;3012;49.944;8.454;2023-12-20T01:43:00;1.57;;;1.50;;
5971;SDS011;3012;49.944;8.454;2023-12-20T01:45:28;1.77;;;1.70;;
5971;SDS011;3012;49.944;8.454;2023-12-20T01:47:57;3.87;;;1.90;;
5971;SDS011;3012;49.944;8.454;2023-12-20T01:50:29;1.73;;;1.73;;
5971;SDS011;3012;49.944;8.454;2023-12-20T01:52:59;1.70;;;1.70;;
5971;SDS011;3012;49.944;8.454;2023-12-20T01:55:29;2.03;;;1.93;;
5971;SDS011;3012;49.944;8.454;2023-12-20T01:57:59;3.10;;;1.90;;
5971;SDS011;3012;49.944;8.454;2023-12-20T02:00:27;1.53;;;1.43;;
5971;SDS011;3012;49.944;8.454;2023-12-20T02:02:57;2.77;;;2.07;;
5971;SDS011;3012;49.944;8.454;2023-12-20T02:05:28;2.83;;;2.00;;
5971;SDS011;3012;49.944;8.454;2023-12-20T02:07:58;3.17;;;1.97;;
5971;SDS011;3012;49.944;8.454;2023-12-20T02:10:26;3.10;;;1.87;;
5971;SDS011;3012;49.944;8.454;2023-12-20T02:12:55;2.20;;;2.10;;
5971;SDS011;3012;49.944;8.454;2023-12-20T02:15:23;2.77;;;2.57;;
5971;SDS011;3012;49.944;8.454;2023-12-20T02:17:51;2.27;;;2.17;;
5971;SDS011;3012;49.944;8.454;2023-12-20T02:20:19;2.03;;;1.93;;
5971;SDS011;3012;49.944;8.454;2023-12-20T02:22:49;2.03;;;1.93;;
5971;SDS011;3012;49.944;8.454;2023-12-20T02:25:17;3.20;;;2.33;;
5971;SDS011;3012;49.944;8.454;2023-12-20T02:27:45;2.00;;;1.90;;
5971;SDS011;3012;49.944;8.454;2023-12-20T02:30:14;1.93;;;1.83;;
5971;SDS011;3012;49.944;8.454;2023-12-20T02:32:42;3.97;;;2.20;;
5971;SDS011;3012;49.944;8.454;2023-12-20T02:35:10;2.00;;;1.63;;
5971;SDS011;3012;49.944;8.454;2023-12-20T02:37:38;2.00;;;1.90;;
5971;SDS011;3012;49.944;8.454;2023-12-20T02:40:09;2.10;;;2.00;;
5971;SDS011;3012;49.944;8.454;2023-12-20T02:42:37;2.87;;;1.83;;
5971;SDS011;3012;49.944;8.454;2023-12-20T02:45:06;1.97;;;1.90;;
5971;SDS011;3012;49.944;8.454;2023-12-20T02:47:34;1.90;;;1.80;;
5971;SDS011;3012;49.944;8.454;2023-12-20T02:50:03;4.30;;;1.83;;
5971;SDS011;3012;49.944;8.454;2023-12-20T02:52:31;1.87;;;1.77;;
5971;SDS011;3012;49.944;8.454;2023-12-20T02:55:00;1.07;;;1.07;;
5971;SDS011;3012;49.944;8.454;2023-12-20T02:57:29;1.63;;;1.63;;
5971;SDS011;3012;49.944;8.454;2023-12-20T02:59:58;1.77;;;1.67;;
5971;SDS011;3012;49.944;8.454;2023-12-20T03:02:26;1.47;;;1.47;;
5971;SDS011;3012;49.944;8.454;2023-12-20T03:04:54;1.90;;;1.80;;
5971;SDS011;3012;49.944;8.454;2023-12-20T03:07:22;3.27;;;1.63;;
5971;SDS011;3012;49.944;8.454;2023-12-20T03:09:50;1.60;;;1.50;;
5971;SDS011;3012;49.944;8.454;2023-12-20T03:12:39;1.33;;;1.27;;
5971;SDS011;3012;49.944;8.454;2023-12-20T03:15:08;1.80;;;1.27;;
5971;SDS011;3012;49.944;8.454;2023-12-20T03:17:36;1.43;;;1.40;;
5971;SDS011;3012;49.944;8.454;2023-12-20T03:20:05;1.27;;;1.27;;
5971;SDS011;3012;49.944;8.454;2023-12-20T03:22:34;1.90;;;1.80;;
5971;SDS011;3012;49.944;8.454;2023-12-20T03:25:02;1.77;;;1.67;;
5971;SDS011;3012;49.944;8.454;2023-12-20T03:27:30;1.47;;;1.47;;
5971;SDS011;3012;49.944;8.454;2023-12-20T03:30:00;2.17;;;2.17;;
5971;SDS011;3012;49.944;8.454;2023-12-20T03:32:28;1.70;;;1.60;;
5971;SDS011;3012;49.944;8.454;2023-12-20T03:34:56;1.70;;;1.60;;
5971;SDS011;3012;49.944;8.454;2023-12-20T03:37:24;1.70;;;1.70;;
5971;SDS011;3012;49.944;8.454;2023-12-20T03:39:52;2.47;;;1.63;;
5971;SDS011;3012;49.944;8.454;2023-12-20T03:42:20;1.47;;;1.37;;
5971;SDS011;3012;49.944;8.454;2023-12-20T03:44:48;1.83;;;1.67;;
5971;SDS011;3012;49.944;8.454;2023-12-20T03:47:18;1.20;;;1.20;;
5971;SDS011;3012;49.944;8.454;2023-12-20T03:49:46;1.10;;;1.10;;
5971;SDS011;3012;49.944;8.454;2023-12-20T03:52:14;2.10;;;1.53;;
5971;SDS011;3012;49.944;8.454;2023-12-20T03:54:42;1.30;;;1.30;;
5971;SDS011;3012;49.944;8.454;2023-12-20T03:57:10;1.60;;;1.50;;
5971;SDS011;3012;49.944;8.454;2023-12-20T03:59:38;1.37;;;1.37;;
5971;SDS011;3012;49.944;8.454;2023-12-20T04:02:07;1.70;;;1.70;;
5971;SDS011;3012;49.944;8.454;2023-12-20T04:04:36;1.63;;;1.63;;
5971;SDS011;3012;49.944;8.454;2023-12-20T04:07:04;1.30;;;1.30;;
5971;SDS011;3012;49.944;8.454;2023-12-20T04:09:32;1.47;;;1.37;;
5971;SDS011;3012;49.944;8.454;2023-12-20T04:12:00;0.97;;;0.87;;
5971;SDS011;3012;49.944;8.454;2023-12-20T04:14:28;1.00;;;1.00;;
5971;SDS011;3012;49.944;8.454;2023-12-20T04:16:56;1.60;;;1.60;;
5971;SDS011;3012;49.944;8.454;2023-12-20T04:19:24;1.20;;;1.20;;
5971;SDS011;3012;49.944;8.454;2023-12-20T04:21:54;1.10;;;1.10;;
5971;SDS011;3012;49.944;8.454;2023-12-20T04:24:22;2.10;;;1.50;;
5971;SDS011;3012;49.944;8.454;2023-12-20T04:26:50;1.40;;;1.30;;
5971;SDS011;3012;49.944;8.454;2023-12-20T04:29:18;1.00;;;1.00;;
5971;SDS011;3012;49.944;8.454;2023-12-20T04:31:45;1.00;;;1.00;;
5971;SDS011;3012;49.944;8.454;2023-12-20T04:34:13;1.07;;;1.07;;
5971;SDS011;3012;49.944;8.454;2023-12-20T04:36:42;0.90;;;0.90;;
5971;SDS011;3012;49.944;8.454;2023-12-20T04:39:11;1.23;;;1.20;;
5971;SDS011;3012;49.944;8.454;2023-12-20T04:41:41;0.90;;;0.90;;
5971;SDS011;3012;49.944;8.454;2023-12-20T04:44:09;2.37;;;1.10;;
5971;SDS011;3012;49.944;8.454;2023-12-20T04:46:37;0.83;;;0.83;;
5971;SDS011;3012;49.944;8.454;2023-12-20T04:49:05;0.53;;;0.53;;
5971;SDS011;3012;49.944;8.454;2023-12-20T04:51:33;0.77;;;0.77;;
5971;SDS011;3012;49.944;8.454;2023-12-20T04:54:01;0.80;;;0.80;;
5971;SDS011;3012;49.944;8.454;2023-12-20T04:56:31;1.00;;;1.00;;
5971;SDS011;3012;49.944;8.454;2023-12-20T04:58:59;1.37;;;0.90;;
5971;SDS011;3012;49.944;8.454;2023-12-20T05:01:27;1.03;;;1.03;;
5971;SDS011;3012;49.944;8.454;2023-12-20T05:03:55;2.30;;;1.00;;
5971;SDS011;3012;49.944;8.454;2023-12-20T05:06:24;2.03;;;0.97;;
5971;SDS011;3012;49.944;8.454;2023-12-20T05:08:52;3.13;;;1.07;;
5971;SDS011;3012;49.944;8.454;2023-12-20T05:11:20;1.40;;;1.20;;
5971;SDS011;3012;49.944;8.454;2023-12-20T05:13:49;1.50;;;1.30;;
5971;SDS011;3012;49.944;8.454;2023-12-20T05:16:17;1.03;;;1.03;;
5971;SDS011;3012;49.944;8.454;2023-12-20T05:18:47;2.63;;;1.30;;
5971;SDS011;3012;49.944;8.454;2023-12-20T05:21:16;5.30;;;0.97;;
5971;SDS011;3012;49.944;8.454;2023-12-20T05:23:44;2.00;;;1.20;;
5971;SDS011;3012;49.944;8.454;2023-12-20T05:26:12;5.87;;;1.47;;
5971;SDS011;3012;49.944;8.454;2023-12-20T05:28:40;3.23;;;1.03;;
5971;SDS011;3012;49.944;8.454;2023-12-20T05:31:10;6.87;;;0.90;;
5971;SDS011;3012;49.944;8.454;2023-12-20T05:33:38;3.03;;;1.10;;
5971;SDS011;3012;49.944;8.454;2023-12-20T05:36:06;1.40;;;1.20;;
5971;SDS011;3012;49.944;8.454;2023-12-20T05:38:37;2.37;;;0.63;;
5971;SDS011;3012;49.944;8.454;2023-12-20T05:41:05;1.47;;;0.60;;
5971;SDS011;3012;49.944;8.454;2023-12-20T05:43:33;3.17;;;0.67;;
5971;SDS011;3012;49.944;8.454;2023-12-20T05:46:01;3.30;;;1.00;;
5971;SDS011;3012;49.944;8.454;2023-12-20T05:48:31;0.53;;;0.50;;
5971;SDS011;3012;49.944;8.454;2023-12-20T05:50:59;2.73;;;0.60;;
5971;SDS011;3012;49.944;8.454;2023-12-20T05:53:27;2.73;;;0.80;;
5971;SDS011;3012;49.944;8.454;2023-12-20T05:55:55;5.53;;;1.77;;
5971;SDS011;3012;49.944;8.454;2023-12-20T05:58:23;4.93;;;1.53;;
5971;SDS011;3012;49.944;8.454;2023-12-20T15:36:23;6.30;;;1.27;;
5971;SDS011;3012;49.944;8.454;2023-12-20T15:38:52;6.50;;;1.13;;
5971;SDS011;3012;49.944;8.454;2023-12-20T18:56:24;7.17;;;2.00;;
5971;SDS011;3012;49.944;8.454;2023-12-20T18:58:52;6.10;;;1.73;;
5971;SDS011;3012;49.944;8.454;2023-12-20T19:01:21;9.90;;;2.33;;
5971;SDS011;3012;49.944;8.454;2023-12-20T19:03:49;4.97;;;1.70;;
5971;SDS011;3012;49.944;8.454;2023-12-20T19:06:17;7.17;;;2.43;;
5971;SDS011;3012;49.944;8.454;2023-12-20T19:08:45;8.60;;;1.80;;
5971;SDS011;3012;49.944;8.454;2023-12-20T19:11:16;5.77;;;2.37;;
5971;SDS011;3012;49.944;8.454;2023-12-20T19:13:48;3.27;;;1.70;;
5971;SDS011;3012;49.944;8.454;2023-12-20T19:16:16;3.47;;;2.00;;
5971;SDS011;3012;49.944;8.454;2023-12-20T19:18:44;5.67;;;2.10;;
5971;SDS011;3012;49.944;8.454;2023-12-20T19:21:13;9.73;;;1.77;;
5971;SDS011;3012;49.944;8.454;2023-12-20T19:23:41;6.07;;;1.97;;
5971;SDS011;3012;49.944;8.454;2023-12-20T19:26:10;7.50;;;2.20;;
5971;SDS011;3012;49.944;8.454;2023-12-20T19:28:39;7.53;;;2.33;;
5971;SDS011;3012;49.944;8.454;2023-12-20T19:31:12;5.13;;;1.70;;
5971;SDS011;3012;49.944;8.454;2023-12-20T19:33:41;5.00;;;1.60;;
5971;SDS011;3012;49.944;8.454;2023-12-20T19:36:12;6.20;;;1.43;;
5971;SDS011;3012;49.944;8.454;2023-12-20T19:38:41;8.77;;;1.60;;
5971;SDS011;3012;49.944;8.454;2023-12-20T19:41:10;4.53;;;1.90;;
5971;SDS011;3012;49.944;8.454;2023-12-20T19:43:38;3.87;;;1.50;;
5971;SDS011;3012;49.944;8.454;2023-12-20T19:46:06;5.90;;;1.30;;
5971;SDS011;3012;49.944;8.454;2023-12-20T19:48:36;1.83;;;1.50;;
5971;SDS011;3012;49.944;8.454;2023-12-20T19:51:04;5.60;;;1.43;;
5971;SDS011;3012;49.944;8.454;2023-12-20T19:53:32;3.67;;;1.50;;
5971;SDS011;3012;49.944;8.454;2023-12-20T19:56:01;3.10;;;1.70;;
5971;SDS011;3012;49.944;8.454;2023-12-20T19:58:29;3.83;;;1.50;;
5971;SDS011;3012;49.944;8.454;2023-12-20T20:00:57;4.67;;;1.57;;
5971;SDS011;3012;49.944;8.454;2023-12-20T20:03:26;7.30;;;1.83;;
5971;SDS011;3012;49.944;8.454;2023-12-20T20:05:55;4.33;;;1.53;;
5971;SDS011;3012;49.944;8.454;2023-12-20T20:08:23;1.90;;;1.40;;
5971;SDS011;3012;49.944;8.454;2023-12-20T20:10:52;3.83;;;1.50;;
5971;SDS011;3012;49.944;8.454;2023-12-20T20:13:20;2.97;;;1.07;;
5971;SDS011;3012;49.944;8.454;2023-12-20T20:15:48;3.17;;;1.50;;
5971;SDS011;3012;49.944;8.454;2023-12-20T20:18:16;4.67;;;1.70;;
5971;SDS011;3012;49.944;8.454;2023-12-20T20:20:46;9.13;;;1.47;;
5971;SDS011;3012;49.944;8.454;2023-12-20T20:23:15;5.00;;;1.87;;
5971;SDS011;3012;49.944;8.454;2023-12-20T20:25:43;3.00;;;1.43;;
5971;SDS011;3012;49.944;8.454;2023-12-20T20:28:12;4.43;;;1.87;;
5971;SDS011;3012;49.944;8.454;2023-12-20T20:30:41;10.20;;;2.60;;
5971;SDS011;3012;49.944;8.454;2023-12-20T20:33:09;3.80;;;2.23;;
5971;SDS011;3012;49.944;8.454;2023-12-20T20:35:38;3.83;;;2.13;;
5971;SDS011;3012;49.944;8.454;2023-12-20T20:38:06;6.33;;;2.80;;
5971;SDS011;3012;49.944;8.454;2023-12-20T20:40:35;6.93;;;2.63;;
5971;SDS011;3012;49.944;8.454;2023-12-20T20:43:03;4.80;;;3.23;;
5971;SDS011;3012;49.944;8.454;2023-12-20T20:45:31;7.40;;;3.97;;
5971;SDS011;3012;49.944;8.454;2023-12-20T20:48:00;4.77;;;3.80;;
5971;SDS011;3012;49.944;8.454;2023-12-20T20:50:46;11.83;;;3.03;;
5971;SDS011;3012;49.944;8.454;2023-12-20T20:53:14;3.27;;;2.87;;
5971;SDS011;3012;49.944;8.454;2023-12-20T20:55:44;6.27;;;2.60;;
5971;SDS011;3012;49.944;8.454;2023-12-20T20:58:13;4.60;;;2.53;;
5971;SDS011;3012;49.944;8.454;2023-12-20T21:00:41;10.43;;;2.70;;
5971;SDS011;3012;49.944;8.454;2023-12-20T21:03:08;5.67;;;2.27;;
5971;SDS011;3012;49.944;8.454;2023-12-20T21:05:37;5.57;;;2.63;;
5971;SDS011;3012;49.944;8.454;2023-12-20T21:08:05;1.80;;;1.50;;
5971;SDS011;3012;49.944;8.454;2023-12-20T21:10:33;5.40;;;1.97;;
5971;SDS011;3012;49.944;8.454;2023-12-20T21:13:03;10.57;;;3.37;;
5971;SDS011;3012;49.944;8.454;2023-12-20T21:15:31;8.60;;;3.37;;
5971;SDS011;3012;49.944;8.454;2023-12-20T21:18:00;10.40;;;3.17;;
5971;SDS011;3012;49.944;8.454;2023-12-20T21:20:28;7.37;;;3.13;;
5971;SDS011;3012;49.944;8.454;2023-12-20T21:22:56;8.30;;;3.17;;
5971;SDS011;3012;49.944;8.454;2023-12-20T21:25:25;4.77;;;3.23;;
5971;SDS011;3012;49.944;8.454;2023-12-20T21:27:53;7.30;;;2.20;;
5971;SDS011;3012;49.944;8.454;2023-12-20T21:30:23;4.23;;;2.70;;
5971;SDS011;3012;49.944;8.454;2023-12-20T21:32:51;5.07;;;3.37;;
5971;SDS011;3012;49.944;8.454;2023-12-20T21:35:19;9.57;;;3.10;;
5971;SDS011;3012;49.944;8.454;2023-12-20T21:37:47;10.63;;;3.07;;
5971;SDS011;3012;49.944;8.454;2023-12-20T21:40:16;11.60;;;3.50;;
5971;SDS011;3012;49.944;8.454;2023-12-20T21:42:44;5.20;;;2.40;;
5971;SDS011;3012;49.944;8.454;2023-12-20T21:45:12;6.83;;;2.17;;
5971;SDS011;3012;49.944;8.454;2023-12-20T21:47:42;4.27;;;2.80;;
5971;SDS011;3012;49.944;8.454;2023-12-20T21:50:10;6.33;;;3.20;;
5971;SDS011;3012;49.944;8.454;2023-12-20T21:52:39;5.43;;;2.20;;
5971;SDS011;3012;49.944;8.454;2023-12-20T21:55:07;4.27;;;1.97;;
5971;SDS011;3012;49.944;8.454;2023-12-20T21:57:35;6.73;;;2.50;;
5971;SDS011;3012;49.944;8.454;2023-12-20T22:00:04;4.30;;;1.80;;
5971;SDS011;3012;49.944;8.454;2023-12-20T22:02:33;4.10;;;2.73;;
5971;SDS011;3012;49.944;8.454;2023-12-20T22:05:03;6.27;;;2.90;;
5971;SDS011;3012;49.944;8.454;2023-12-20T22:07:31;5.60;;;2.20;;
5971;SDS011;3012;49.944;8.454;2023-12-20T22:09:59;8.47;;;3.40;;
5971;SDS011;3012;49.944;8.454;2023-12-20T22:12:27;2.83;;;2.33;;
5971;SDS011;3012;49.944;8.454;2023-12-20T22:14:55;6.17;;;2.83;;
5971;SDS011;3012;49.944;8.454;2023-12-20T22:17:23;5.90;;;2.23;;
5971;SDS011;3012;49.944;8.454;2023-12-20T22:19:51;2.80;;;2.60;;
5971;SDS011;3012;49.944;8.454;2023-12-20T22:22:21;5.80;;;2.70;;
5971;SDS011;3012;49.944;8.454;2023-12-20T22:24:49;5.60;;;2.97;;
5971;SDS011;3012;49.944;8.454;2023-12-20T22:27:17;5.87;;;2.87;;
5971;SDS011;3012;49.944;8.454;2023-12-20T22:29:45;4.23;;;2.93;;
5971;SDS011;3012;49.944;8.454;2023-12-20T22:32:13;7.07;;;2.83;;
5971;SDS011;3012;49.944;8.454;2023-12-20T22:34:41;7.80;;;2.63;;
5971;SDS011;3012;49.944;8.454;2023-12-20T22:37:09;2.97;;;1.73;;
5971;SDS011;3012;49.944;8.454;2023-12-20T22:39:39;5.77;;;2.07;;
5971;SDS011;3012;49.944;8.454;2023-12-20T22:42:07;4.50;;;2.00;;
5971;SDS011;3012;49.944;8.454;2023-12-20T22:44:34;5.40;;;1.80;;
5971;SDS011;3012;49.944;8.454;2023-12-20T22:47:03;1.87;;;1.73;;
5971;SDS011;3012;49.944;8.454;2023-12-20T22:49:31;3.67;;;1.90;;
5971;SDS011;3012;49.944;8.454;2023-12-20T22:51:59;4.83;;;1.97;;
5971;SDS011;3012;49.944;8.454;2023-12-20T22:54:27;4.27;;;1.97;;
5971;SDS011;3012;49.944;8.454;2023-12-20T22:56:56;6.03;;;2.37;;
5971;SDS011;3012;49.944;8.454;2023-12-20T22:59:25;5.40;;;2.23;;
5971;SDS011;3012;49.944;8.454;2023-12-20T23:01:53;2.10;;;2.00;;
5971;SDS011;3012;49.944;8.454;2023-12-20T23:04:21;4.27;;;2.50;;
5971;SDS011;3012;49.944;8.454;2023-12-20T23:06:49;1.63;;;1.60;;
5971;SDS011;3012;49.944;8.454;2023-12-20T23:09:18;2.67;;;1.80;;
5971;SDS011;3012;49.944;8.454;2023-12-20T23:11:46;4.13;;;2.33;;
5971;SDS011;3012;49.944;8.454;2023-12-20T23:14:17;2.23;;;1.60;;
5971;SDS011;3012;49.944;8.454;2023-12-20T23:16:45;2.30;;;1.37;;
5971;SDS011;3012;49.944;8.454;2023-12-20T23:19:13;2.10;;;1.90;;
5971;SDS011;3012;49.944;8.454;2023-12-20T23:21:42;4.17;;;2.40;;
5971;SDS011;3012;49.944;8.454;2023-12-20T23:24:10;4.63;;;3.10;;
5971;SDS011;3012;49.944;8.454;2023-12-20T23:26:42;2.90;;;2.37;;
5971;SDS011;3012;49.944;8.454;2023-12-20T23:29:09;4.13;;;2.80;;
5971;SDS011;3012;49.944;8.454;2023-12-20T23:31:39;7.73;;;2.90;;
5971;SDS011;3012;49.944;8.454;2023-12-20T23:34:07;5.50;;;3.10;;
5971;SDS011;3012;49.944;8.454;2023-12-20T23:36:36;3.23;;;2.93;;
5971;SDS011;3012;49.944;8.454;2023-12-20T23:39:04;4.97;;;2.97;;
5971;SDS011;3012;49.944;8.454;2023-12-20T23:41:32;5.93;;;3.20;;
5971;SDS011;3012;49.944;8.454;2023-12-20T23:44:00;6.33;;;2.93;;
5971;SDS011;3012;49.944;8.454;2023-12-20T23:46:29;3.13;;;1.57;;
5971;SDS011;3012;49.944;8.454;2023-12-20T23:48:58;1.97;;;1.37;;
5971;SDS011;3012;49.944;8.454;2023-12-20T23:51:27;4.77;;;1.40;;
5971;SDS011;3012;49.944;8.454;2023-12-20T23:53:55;1.80;;;1.50;;
5971;SDS011;3012;49.944;8.454;2023-12-20T23:56:23;6.23;;;1.07;;
5971;SDS011;3012;49.944;8.454;2023-12-20T23:59:03;5.60;;;1.53;;
